Time;durP1;ratioP1;P1;durP2;ratioP2;P2;SDS_P1;SDS_P2;PMS_P1;PMS_P2;Temp;Humidity;BMP_temperature;BMP_pressure;BME280_temperature;BME280_humidity;BME280_pressure;Samples;Min_cycle;Max_cycle;Signal;HPM_P1;HPM_P2
2021/07/16 00:00:12;;;;;;;19.92;4.90;;;;;;;;;;5042862;28;20517;-68
2021/07/16 00:02:39;;;;;;;27.38;6.75;;;;;;;;;;5040547;28;20072;-68
2021/07/16 00:05:05;;;;;;;24.45;5.93;;;;;;;;;;5042502;28;20438;-68
2021/07/16 00:07:32;;;;;;;25.98;5.15;;;;;;;;;;5043009;28;20436;-68
2021/07/16 00:09:58;;;;;;;24.40;5.20;;;;;;;;;;5039638;28;20064;-68
2021/07/16 00:12:25;;;;;;;24.67;5.57;;;;;;;;;;5042988;28;20120;-68
2021/07/16 00:14:51;;;;;;;18.70;5.00;;;;;;;;;;5042562;28;20610;-68
2021/07/16 00:17:17;;;;;;;24.77;5.22;;;;;;;;;;5041359;28;20076;-68
2021/07/16 00:19:44;;;;;;;16.60;5.07;;;;;;;;;;5043867;28;20068;-68
2021/07/16 00:22:10;;;;;;;21.20;5.22;;;;;;;;;;5040391;28;20097;-68
2021/07/16 00:24:37;;;;;;;23.40;5.28;;;;;;;;;;5041702;28;20136;-68
2021/07/16 00:27:04;;;;;;;23.65;5.30;;;;;;;;;;5040955;28;20153;-68
2021/07/16 00:29:31;;;;;;;24.00;5.82;;;;;;;;;;5043197;28;20133;-68
2021/07/16 00:31:57;;;;;;;19.10;4.65;;;;;;;;;;5038933;28;20143;-68
2021/07/16 00:34:23;;;;;;;22.50;5.40;;;;;;;;;;5042759;28;20049;-68
2021/07/16 00:36:50;;;;;;;28.55;5.18;;;;;;;;;;5045501;28;20048;-68
2021/07/16 00:39:16;;;;;;;22.58;5.03;;;;;;;;;;5045819;28;20052;-68
2021/07/16 00:41:42;;;;;;;21.95;5.43;;;;;;;;;;5045944;28;20053;-68
2021/07/16 00:44:08;;;;;;;25.40;6.07;;;;;;;;;;5041887;28;20041;-68
2021/07/16 00:46:34;;;;;;;23.60;5.65;;;;;;;;;;5043925;28;20037;-68
2021/07/16 00:49:01;;;;;;;21.83;5.22;;;;;;;;;;5044431;28;20041;-68
2021/07/16 00:51:27;;;;;;;24.77;5.97;;;;;;;;;;5045850;28;20041;-68
2021/07/16 00:53:53;;;;;;;24.00;5.18;;;;;;;;;;5044904;28;20129;-68
2021/07/16 00:56:19;;;;;;;25.35;5.68;;;;;;;;;;5042868;28;20042;-68
2021/07/16 00:58:46;;;;;;;24.25;5.05;;;;;;;;;;5042417;28;20140;-68
2021/07/16 01:01:12;;;;;;;18.05;4.07;;;;;;;;;;5046725;28;20037;-68
2021/07/16 01:03:38;;;;;;;20.58;4.55;;;;;;;;;;5043084;28;20477;-68
2021/07/16 01:06:04;;;;;;;30.52;6.07;;;;;;;;;;5044709;28;20045;-68
2021/07/16 01:08:32;;;;;;;28.60;5.85;;;;;;;;;;5046009;28;20154;-68
2021/07/16 01:10:59;;;;;;;18.85;4.40;;;;;;;;;;5044720;28;20048;-68
2021/07/16 01:13:25;;;;;;;24.58;5.97;;;;;;;;;;5041780;28;20806;-68
2021/07/16 01:15:54;;;;;;;26.30;6.80;;;;;;;;;;5041804;28;20436;-68
2021/07/16 01:18:20;;;;;;;23.92;4.93;;;;;;;;;;5045286;28;20183;-68
2021/07/16 01:20:46;;;;;;;24.27;4.93;;;;;;;;;;5040989;28;20077;-68
2021/07/16 01:23:15;;;;;;;21.17;5.38;;;;;;;;;;5044257;28;20051;-68
2021/07/16 01:25:42;;;;;;;30.30;5.38;;;;;;;;;;5042682;28;20355;-68
2021/07/16 01:28:08;;;;;;;34.90;7.13;;;;;;;;;;5044313;28;20049;-68
2021/07/16 01:30:35;;;;;;;27.75;6.47;;;;;;;;;;5045000;28;20052;-68
2021/07/16 01:33:02;;;;;;;23.17;5.15;;;;;;;;;;5041462;28;20043;-68
2021/07/16 01:35:29;;;;;;;28.50;6.07;;;;;;;;;;5045717;28;20129;-68
2021/07/16 01:37:55;;;;;;;25.92;5.72;;;;;;;;;;5043576;28;20144;-68
2021/07/16 01:40:22;;;;;;;34.97;5.65;;;;;;;;;;5047379;28;20048;-68
2021/07/16 01:42:51;;;;;;;31.13;5.80;;;;;;;;;;5038868;28;20041;-68
2021/07/16 01:45:25;;;;;;;25.63;5.30;;;;;;;;;;5042248;28;20096;-68
2021/07/16 01:47:54;;;;;;;27.60;5.43;;;;;;;;;;5044484;28;20056;-68
2021/07/16 01:50:20;;;;;;;23.05;4.43;;;;;;;;;;5040860;28;20443;-68
2021/07/16 01:52:47;;;;;;;25.92;5.18;;;;;;;;;;5041760;28;20481;-68
2021/07/16 01:55:14;;;;;;;27.58;5.82;;;;;;;;;;5044014;28;20041;-68
2021/07/16 01:57:44;;;;;;;29.10;5.45;;;;;;;;;;5044142;28;20056;-68
2021/07/16 02:00:11;;;;;;;26.83;4.93;;;;;;;;;;5041635;28;20107;-68
2021/07/16 02:02:46;;;;;;;36.40;6.63;;;;;;;;;;5042211;28;20041;-68
2021/07/16 02:05:12;;;;;;;22.02;5.70;;;;;;;;;;5045409;28;20119;-68
2021/07/16 02:07:38;;;;;;;31.60;5.28;;;;;;;;;;5043394;28;20105;-68
2021/07/16 02:10:05;;;;;;;28.60;6.20;;;;;;;;;;5042637;28;20049;-68
2021/07/16 02:12:31;;;;;;;29.73;5.25;;;;;;;;;;5041296;28;20132;-68
2021/07/16 02:14:57;;;;;;;28.92;6.57;;;;;;;;;;5043781;28;20477;-68
2021/07/16 02:17:23;;;;;;;25.08;5.28;;;;;;;;;;5038071;28;20044;-68
2021/07/16 02:19:50;;;;;;;22.17;4.75;;;;;;;;;;5044570;28;20080;-68
2021/07/16 02:22:16;;;;;;;21.15;4.55;;;;;;;;;;5044329;28;20040;-69
2021/07/16 02:24:43;;;;;;;34.63;5.68;;;;;;;;;;5043520;28;20049;-68
2021/07/16 02:27:09;;;;;;;27.17;4.88;;;;;;;;;;5044705;28;20078;-68
2021/07/16 02:29:35;;;;;;;26.25;5.05;;;;;;;;;;5041142;28;20108;-68
2021/07/16 02:32:02;;;;;;;27.77;5.55;;;;;;;;;;5042583;28;20115;-68
2021/07/16 02:34:30;;;;;;;29.70;5.88;;;;;;;;;;5039748;28;20048;-68
2021/07/16 02:36:57;;;;;;;25.92;5.90;;;;;;;;;;5046174;28;20053;-68
2021/07/16 02:39:23;;;;;;;27.48;6.00;;;;;;;;;;5043153;28;20053;-68
2021/07/16 02:41:49;;;;;;;31.38;5.47;;;;;;;;;;5045022;28;20048;-68
2021/07/16 02:44:15;;;;;;;23.92;5.45;;;;;;;;;;5043861;28;20099;-68
2021/07/16 02:46:42;;;;;;;31.55;6.38;;;;;;;;;;5042292;28;20045;-68
2021/07/16 02:49:08;;;;;;;25.52;5.80;;;;;;;;;;5041675;28;20476;-68
2021/07/16 02:51:37;;;;;;;26.48;5.22;;;;;;;;;;5043915;28;20061;-68
2021/07/16 02:54:03;;;;;;;24.75;5.78;;;;;;;;;;5043471;28;20091;-68
2021/07/16 02:56:29;;;;;;;27.15;6.18;;;;;;;;;;5042882;28;20064;-68
2021/07/16 02:58:56;;;;;;;32.22;6.15;;;;;;;;;;5043134;28;20105;-68
2021/07/16 03:01:22;;;;;;;26.90;5.47;;;;;;;;;;5042450;28;20110;-69
2021/07/16 03:03:48;;;;;;;31.83;6.20;;;;;;;;;;5041476;28;20068;-68
2021/07/16 03:06:14;;;;;;;31.98;6.38;;;;;;;;;;5041822;28;20049;-68
2021/07/16 03:08:41;;;;;;;34.55;6.93;;;;;;;;;;5042597;28;20455;-68
2021/07/16 03:11:07;;;;;;;25.80;6.25;;;;;;;;;;5040633;28;20146;-68
2021/07/16 03:13:34;;;;;;;26.00;5.68;;;;;;;;;;5038188;28;20036;-68
2021/07/16 03:16:00;;;;;;;25.75;5.30;;;;;;;;;;5041225;28;20048;-68
2021/07/16 03:18:26;;;;;;;28.00;5.93;;;;;;;;;;5035370;28;20053;-68
2021/07/16 03:20:52;;;;;;;30.27;6.78;;;;;;;;;;5039820;28;20466;-68
2021/07/16 03:23:20;;;;;;;29.80;6.22;;;;;;;;;;5039748;28;20048;-68
2021/07/16 03:25:47;;;;;;;43.95;7.72;;;;;;;;;;5034934;28;20038;-68
2021/07/16 03:28:13;;;;;;;30.67;5.10;;;;;;;;;;5043769;28;20052;-68
2021/07/16 03:30:40;;;;;;;27.90;5.78;;;;;;;;;;5038540;28;20424;-68
2021/07/16 03:33:06;;;;;;;28.60;5.72;;;;;;;;;;5040199;28;20045;-68
2021/07/16 03:35:33;;;;;;;31.55;6.32;;;;;;;;;;5040658;28;20401;-68
2021/07/16 03:37:59;;;;;;;28.88;6.50;;;;;;;;;;5040893;28;20072;-68
2021/07/16 03:40:28;;;;;;;35.33;6.78;;;;;;;;;;5043126;28;20136;-68
2021/07/16 03:42:54;;;;;;;32.50;6.50;;;;;;;;;;5039753;28;20045;-68
2021/07/16 03:45:21;;;;;;;35.85;6.60;;;;;;;;;;5043926;28;20056;-68
2021/07/16 03:47:47;;;;;;;26.40;5.93;;;;;;;;;;5039782;28;20525;-68
2021/07/16 03:50:15;;;;;;;23.00;6.05;;;;;;;;;;5044823;28;20107;-68
2021/07/16 03:52:41;;;;;;;35.13;6.72;;;;;;;;;;5041052;28;20067;-68
2021/07/16 03:55:09;;;;;;;29.75;6.65;;;;;;;;;;5041696;28;20103;-68
2021/07/16 03:57:36;;;;;;;30.67;5.45;;;;;;;;;;5032356;28;20053;-68
2021/07/16 04:00:05;;;;;;;32.65;6.35;;;;;;;;;;5040224;28;20558;-68
2021/07/16 04:02:31;;;;;;;31.67;7.35;;;;;;;;;;5040354;28;20045;-68
2021/07/16 04:04:58;;;;;;;37.22;6.82;;;;;;;;;;5041076;28;20056;-68
2021/07/16 04:07:28;;;;;;;36.72;7.28;;;;;;;;;;5039446;28;20068;-68
2021/07/16 04:09:55;;;;;;;32.40;5.68;;;;;;;;;;5041309;28;20029;-68
2021/07/16 04:12:21;;;;;;;37.05;6.65;;;;;;;;;;5041821;28;20045;-68
2021/07/16 04:14:48;;;;;;;44.63;7.72;;;;;;;;;;5036313;28;20090;-68
2021/07/16 04:17:16;;;;;;;36.50;6.53;;;;;;;;;;5040157;28;20048;-68
2021/07/16 04:19:43;;;;;;;35.38;6.32;;;;;;;;;;5042500;28;20025;-68
2021/07/16 04:22:14;;;;;;;38.58;7.13;;;;;;;;;;5044495;28;20106;-68
2021/07/16 04:24:41;;;;;;;32.47;7.32;;;;;;;;;;5045152;28;20138;-68
2021/07/16 04:27:08;;;;;;;30.77;7.05;;;;;;;;;;5044137;28;20075;-68
2021/07/16 04:29:35;;;;;;;26.63;5.70;;;;;;;;;;5044184;28;20045;-68
2021/07/16 04:32:01;;;;;;;31.40;7.10;;;;;;;;;;5047015;28;20177;-68
2021/07/16 04:34:29;;;;;;;30.27;6.00;;;;;;;;;;5043784;28;20048;-68
2021/07/16 04:36:56;;;;;;;35.30;6.18;;;;;;;;;;5041886;28;20052;-68
2021/07/16 04:39:22;;;;;;;26.60;6.10;;;;;;;;;;5046055;28;20048;-68
2021/07/16 04:41:48;;;;;;;31.52;6.78;;;;;;;;;;5044814;28;20045;-68
2021/07/16 04:44:17;;;;;;;37.80;7.78;;;;;;;;;;5043625;28;20069;-68
2021/07/16 04:46:44;;;;;;;27.40;5.93;;;;;;;;;;5045237;28;20063;-68
2021/07/16 04:49:10;;;;;;;32.13;6.28;;;;;;;;;;5041750;28;20049;-68
2021/07/16 04:51:36;;;;;;;34.42;7.10;;;;;;;;;;5045548;28;20107;-68
2021/07/16 04:54:04;;;;;;;31.33;7.00;;;;;;;;;;5044775;28;20045;-68
2021/07/16 04:56:31;;;;;;;26.00;6.68;;;;;;;;;;5044771;28;20361;-68
2021/07/16 04:58:57;;;;;;;33.20;7.05;;;;;;;;;;5044921;28;20084;-68
2021/07/16 05:01:26;;;;;;;35.63;7.63;;;;;;;;;;5044433;28;20091;-68
2021/07/16 05:03:52;;;;;;;31.90;7.63;;;;;;;;;;5043444;28;20063;-68
2021/07/16 05:06:19;;;;;;;32.53;6.43;;;;;;;;;;5042577;28;20095;-68
2021/07/16 05:08:46;;;;;;;29.45;7.65;;;;;;;;;;5037417;28;20041;-68
2021/07/16 05:11:13;;;;;;;41.65;8.23;;;;;;;;;;5042539;28;20044;-68
2021/07/16 05:13:40;;;;;;;35.03;6.88;;;;;;;;;;5042406;28;20068;-68
2021/07/16 05:16:07;;;;;;;31.48;7.72;;;;;;;;;;5041237;28;20420;-68
2021/07/16 05:18:34;;;;;;;37.80;7.15;;;;;;;;;;5042262;28;20049;-68
2021/07/16 05:21:01;;;;;;;30.00;6.75;;;;;;;;;;5042301;28;20049;-68
2021/07/16 05:23:27;;;;;;;34.08;6.68;;;;;;;;;;5038372;28;20522;-68
2021/07/16 05:25:54;;;;;;;35.10;6.78;;;;;;;;;;5045190;28;20029;-67
2021/07/16 05:28:20;;;;;;;33.53;6.07;;;;;;;;;;5044418;28;21521;-68
2021/07/16 05:30:47;;;;;;;28.60;7.75;;;;;;;;;;5043540;28;20053;-74
2021/07/16 05:33:13;;;;;;;32.55;7.38;;;;;;;;;;5040749;28;20045;-68
2021/07/16 05:35:40;;;;;;;35.80;6.60;;;;;;;;;;5041415;28;20049;-68
2021/07/16 05:38:08;;;;;;;38.10;6.22;;;;;;;;;;5041761;28;20040;-68
2021/07/16 05:40:34;;;;;;;34.60;6.75;;;;;;;;;;5044830;28;20063;-68
2021/07/16 05:43:05;;;;;;;30.95;6.57;;;;;;;;;;5040151;28;20512;-68
2021/07/16 05:45:31;;;;;;;28.15;6.55;;;;;;;;;;5040534;28;20037;-68
2021/07/16 05:47:59;;;;;;;32.92;6.28;;;;;;;;;;5039390;28;20072;-68
2021/07/16 05:50:26;;;;;;;33.05;5.80;;;;;;;;;;5042345;28;20127;-68
2021/07/16 05:52:52;;;;;;;28.17;5.78;;;;;;;;;;5043042;28;20553;-68
2021/07/16 05:55:18;;;;;;;23.52;6.25;;;;;;;;;;5041122;28;20047;-68
2021/07/16 05:57:44;;;;;;;33.50;6.32;;;;;;;;;;5034576;28;20037;-68
2021/07/16 06:00:11;;;;;;;35.78;8.70;;;;;;;;;;5034125;28;20128;-68
2021/07/16 06:02:37;;;;;;;28.55;6.30;;;;;;;;;;5037526;28;20037;-68
2021/07/16 06:05:03;;;;;;;32.15;6.70;;;;;;;;;;5032287;28;20063;-69
2021/07/16 06:07:30;;;;;;;35.40;7.13;;;;;;;;;;5036096;28;20102;-68
2021/07/16 06:09:56;;;;;;;32.28;6.95;;;;;;;;;;5042576;28;20044;-68
2021/07/16 06:12:22;;;;;;;39.88;7.35;;;;;;;;;;5043380;28;20443;-68
2021/07/16 06:14:54;;;;;;;36.08;8.18;;;;;;;;;;5038703;28;20085;-68
2021/07/16 06:17:20;;;;;;;31.98;6.28;;;;;;;;;;5036611;28;20207;-68
2021/07/16 06:19:47;;;;;;;36.28;6.65;;;;;;;;;;5031494;28;20040;-68
2021/07/16 06:22:13;;;;;;;32.22;6.00;;;;;;;;;;5034905;28;20052;-68
2021/07/16 06:24:39;;;;;;;37.45;7.70;;;;;;;;;;5041999;28;20029;-68
2021/07/16 06:27:05;;;;;;;28.23;6.15;;;;;;;;;;5043190;28;20048;-67
2021/07/16 06:29:32;;;;;;;31.65;6.32;;;;;;;;;;5041176;28;20048;-67
2021/07/16 06:31:59;;;;;;;31.52;7.05;;;;;;;;;;5038430;28;20060;-68
2021/07/16 06:34:25;;;;;;;26.13;6.32;;;;;;;;;;5036677;28;20048;-68
2021/07/16 06:36:51;;;;;;;26.50;6.50;;;;;;;;;;5045042;28;20045;-68
2021/07/16 06:39:18;;;;;;;36.25;7.63;;;;;;;;;;5044537;28;20037;-67
2021/07/16 06:41:44;;;;;;;30.50;6.30;;;;;;;;;;5035718;28;20055;-68
2021/07/16 06:44:10;;;;;;;32.67;7.85;;;;;;;;;;5046548;28;20451;-68
2021/07/16 06:46:37;;;;;;;29.95;7.43;;;;;;;;;;5043989;28;20176;-68
2021/07/16 06:49:04;;;;;;;29.50;5.68;;;;;;;;;;5045082;28;20520;-68
2021/07/16 06:51:33;;;;;;;38.70;7.72;;;;;;;;;;5039342;28;20049;-68
2021/07/16 06:53:59;;;;;;;35.50;6.00;;;;;;;;;;5042747;28;20052;-68
2021/07/16 06:56:25;;;;;;;36.63;7.45;;;;;;;;;;5046510;28;20597;-68
2021/07/16 06:58:52;;;;;;;33.08;6.45;;;;;;;;;;5040857;28;20129;-68
2021/07/16 07:01:19;;;;;;;27.92;7.22;;;;;;;;;;5048143;28;20057;-68
2021/07/16 07:03:45;;;;;;;34.30;6.75;;;;;;;;;;5044157;28;20100;-68
2021/07/16 07:06:12;;;;;;;24.65;6.30;;;;;;;;;;5047549;28;20065;-68
2021/07/16 07:08:38;;;;;;;37.80;7.30;;;;;;;;;;5045368;28;20209;-68
2021/07/16 07:11:05;;;;;;;32.10;6.57;;;;;;;;;;5047707;28;20048;-68
2021/07/16 07:13:31;;;;;;;33.05;7.50;;;;;;;;;;5048749;28;20124;-68
2021/07/16 07:15:58;;;;;;;29.98;6.30;;;;;;;;;;5045557;28;20056;-68
2021/07/16 07:18:25;;;;;;;33.90;6.63;;;;;;;;;;5036007;28;20113;-68
2021/07/16 07:20:51;;;;;;;37.15;6.65;;;;;;;;;;5044310;28;20098;-81
2021/07/16 07:23:17;;;;;;;29.92;7.20;;;;;;;;;;5045879;28;20492;-68
2021/07/16 07:25:43;;;;;;;30.27;6.93;;;;;;;;;;5045869;28;20148;-68
2021/07/16 07:28:10;;;;;;;35.97;7.78;;;;;;;;;;5040381;28;20458;-68
2021/07/16 07:30:36;;;;;;;29.33;6.70;;;;;;;;;;5046993;28;20114;-68
2021/07/16 07:33:04;;;;;;;41.22;7.75;;;;;;;;;;5044103;28;20048;-68
2021/07/16 07:35:32;;;;;;;33.38;6.72;;;;;;;;;;5044974;28;20485;-68
2021/07/16 07:37:59;;;;;;;34.63;7.57;;;;;;;;;;5034474;28;20045;-68
2021/07/16 07:40:25;;;;;;;35.20;7.22;;;;;;;;;;5030053;28;20045;-68
2021/07/16 07:42:51;;;;;;;36.40;6.75;;;;;;;;;;5040506;28;20042;-68
2021/07/16 07:45:18;;;;;;;37.55;8.32;;;;;;;;;;5029385;28;20103;-68
2021/07/16 07:47:44;;;;;;;29.70;6.50;;;;;;;;;;5030856;28;20127;-68
2021/07/16 07:50:13;;;;;;;33.55;7.03;;;;;;;;;;5035753;28;20052;-68
2021/07/16 07:52:39;;;;;;;36.40;7.05;;;;;;;;;;5050296;28;20045;-68
2021/07/16 07:55:06;;;;;;;39.42;8.98;;;;;;;;;;5053935;28;20079;-72
2021/07/16 07:57:32;;;;;;;31.73;7.32;;;;;;;;;;5047023;28;20088;-68
2021/07/16 07:59:59;;;;;;;29.20;6.40;;;;;;;;;;5045171;28;20096;-68
2021/07/16 08:02:25;;;;;;;25.52;6.60;;;;;;;;;;5050919;28;20106;-67
2021/07/16 08:04:51;;;;;;;31.27;6.03;;;;;;;;;;5052145;28;20120;-68
2021/07/16 08:07:17;;;;;;;34.35;8.32;;;;;;;;;;5043057;28;20063;-68
2021/07/16 08:09:44;;;;;;;28.05;6.78;;;;;;;;;;5041794;28;20041;-68
2021/07/16 08:12:10;;;;;;;36.88;6.55;;;;;;;;;;5046471;28;20481;-68
2021/07/16 08:14:36;;;;;;;40.83;6.78;;;;;;;;;;5050297;28;20128;-67
2021/07/16 08:17:03;;;;;;;27.73;7.22;;;;;;;;;;5044213;28;20056;-67
2021/07/16 08:19:29;;;;;;;37.45;7.22;;;;;;;;;;5047490;28;20120;-67
2021/07/16 08:21:55;;;;;;;27.65;6.25;;;;;;;;;;5049130;28;20060;-67
2021/07/16 08:24:22;;;;;;;32.08;7.00;;;;;;;;;;5047906;28;20045;-67
2021/07/16 08:26:49;;;;;;;35.83;6.28;;;;;;;;;;5048139;28;20090;-68
2021/07/16 08:29:15;;;;;;;30.40;6.53;;;;;;;;;;5042815;28;20148;-67
2021/07/16 08:31:43;;;;;;;33.05;6.40;;;;;;;;;;5050388;28;20037;-68
2021/07/16 08:34:10;;;;;;;33.80;6.75;;;;;;;;;;5050066;28;20049;-67
2021/07/16 08:36:36;;;;;;;30.52;6.38;;;;;;;;;;5043169;28;20061;-67
2021/07/16 08:39:05;;;;;;;35.67;6.72;;;;;;;;;;5039663;28;20037;-67
2021/07/16 08:41:32;;;;;;;33.58;7.22;;;;;;;;;;5032607;28;20038;-68
2021/07/16 08:43:58;;;;;;;29.52;6.30;;;;;;;;;;5033386;28;20090;-67
2021/07/16 08:46:24;;;;;;;34.78;6.90;;;;;;;;;;5032793;28;20053;-67
2021/07/16 08:48:50;;;;;;;36.35;7.18;;;;;;;;;;5033968;28;20130;-67
2021/07/16 08:51:18;;;;;;;31.48;6.63;;;;;;;;;;5043321;28;20451;-67
2021/07/16 08:53:46;;;;;;;30.35;7.80;;;;;;;;;;5046192;28;20133;-67
2021/07/16 08:56:13;;;;;;;34.88;7.72;;;;;;;;;;5041791;28;20064;-67
2021/07/16 08:58:39;;;;;;;34.10;6.90;;;;;;;;;;5047796;28;20476;-68
2021/07/16 09:01:05;;;;;;;30.50;8.00;;;;;;;;;;5046132;28;20037;-67
2021/07/16 09:03:32;;;;;;;31.52;7.25;;;;;;;;;;5037975;28;20049;-67
2021/07/16 09:05:59;;;;;;;32.78;7.75;;;;;;;;;;5036833;28;20056;-67
2021/07/16 09:08:27;;;;;;;33.00;7.85;;;;;;;;;;5041992;28;20118;-68
2021/07/16 09:10:59;;;;;;;32.65;7.78;;;;;;;;;;5036878;28;20041;-68
2021/07/16 09:13:26;;;;;;;27.52;6.93;;;;;;;;;;5043550;28;20071;-67
2021/07/16 09:15:53;;;;;;;30.70;7.32;;;;;;;;;;5043190;28;20049;-68
2021/07/16 09:18:26;;;;;;;29.90;7.28;;;;;;;;;;5041611;28;20064;-67
2021/07/16 09:21:10;;;;;;;34.45;7.43;;;;;;;;;;5042705;28;20045;-68
2021/07/16 09:23:36;;;;;;;;;;;;;;;;;;5041057;28;20064;-68
2021/07/16 09:26:15;;;;;;;37.13;7.25;;;;;;;;;;5040566;28;19951;-67
2021/07/16 09:28:44;;;;;;;34.35;7.97;;;;;;;;;;5042736;28;20153;-68
2021/07/16 09:31:16;;;;;;;39.30;7.30;;;;;;;;;;5042580;28;20056;-68
2021/07/16 09:33:44;;;;;;;34.08;7.90;;;;;;;;;;5042411;28;20469;-68
2021/07/16 09:36:12;;;;;;;30.98;6.40;;;;;;;;;;5043951;28;20074;-67
2021/07/16 09:38:39;;;;;;;27.40;7.00;;;;;;;;;;5041323;28;20064;-67
2021/07/16 09:41:06;;;;;;;31.70;6.43;;;;;;;;;;5040338;28;20248;-68
2021/07/16 09:43:32;;;;;;;33.33;6.95;;;;;;;;;;5041183;28;20064;-67
2021/07/16 09:46:01;;;;;;;34.47;6.80;;;;;;;;;;5042123;28;20433;-68
2021/07/16 09:48:33;;;;;;;28.85;7.15;;;;;;;;;;5051329;28;20044;-68
2021/07/16 09:51:08;;;;;;;37.75;8.57;;;;;;;;;;5045357;28;20065;-67
2021/07/16 09:53:42;;;;;;;27.67;6.32;;;;;;;;;;5045978;28;20478;-67
2021/07/16 09:56:15;;;;;;;32.28;7.50;;;;;;;;;;5044264;28;20065;-67
2021/07/16 09:58:41;;;;;;;;;;;;;;;;;;5050728;28;20052;-68
2021/07/16 10:01:09;;;;;;;29.63;6.63;;;;;;;;;;5042490;28;19920;-67
2021/07/16 10:03:36;;;;;;;43.65;8.02;;;;;;;;;;5041848;28;20611;-67
2021/07/16 10:06:03;;;;;;;33.13;7.60;;;;;;;;;;5048490;28;20143;-67
2021/07/16 10:08:33;;;;;;;30.80;7.05;;;;;;;;;;5049940;28;20064;-68
2021/07/16 10:11:02;;;;;;;27.40;7.25;;;;;;;;;;5050599;28;20358;-68
2021/07/16 10:13:29;;;;;;;39.42;9.48;;;;;;;;;;5043821;28;20040;-67
2021/07/16 10:15:56;;;;;;;31.10;6.85;;;;;;;;;;5041807;28;20159;-67
2021/07/16 10:18:23;;;;;;;31.55;7.43;;;;;;;;;;5042415;28;20052;-68
2021/07/16 10:20:50;;;;;;;32.75;7.65;;;;;;;;;;5042448;28;20135;-68
2021/07/16 10:23:16;;;;;;;28.55;7.50;;;;;;;;;;5044548;28;20125;-68
2021/07/16 10:25:45;;;;;;;30.00;6.57;;;;;;;;;;5048610;28;20049;-68
2021/07/16 10:28:28;;;;;;;36.13;8.48;;;;;;;;;;5050367;28;20518;-69
2021/07/16 10:30:54;;;;;;;35.60;7.43;;;;;;;;;;5050478;28;20120;-68
2021/07/16 10:33:33;;;;;;;30.58;7.57;;;;;;;;;;5049820;28;20052;-81
2021/07/16 10:36:00;;;;;;;39.65;8.38;;;;;;;;;;5050703;28;20072;-69
2021/07/16 10:38:35;;;;;;;34.00;7.10;;;;;;;;;;5050378;28;20369;-68
2021/07/16 10:41:02;;;;;;;26.40;6.30;;;;;;;;;;5050012;28;20052;-69
2021/07/16 10:43:28;;;;;;;33.88;7.13;;;;;;;;;;5049883;28;20124;-68
2021/07/16 10:45:56;;;;;;;29.08;7.10;;;;;;;;;;5043735;28;20049;-69
2021/07/16 10:48:23;;;;;;;28.80;6.90;;;;;;;;;;5047053;28;20485;-68
2021/07/16 10:50:51;;;;;;;27.85;7.45;;;;;;;;;;5044587;28;20036;-68
2021/07/16 10:53:18;;;;;;;34.63;7.90;;;;;;;;;;5039183;28;20045;-69
2021/07/16 10:55:44;;;;;;;35.42;7.05;;;;;;;;;;5048183;28;20045;-68
2021/07/16 10:58:20;;;;;;;30.40;7.35;;;;;;;;;;5047083;28;20123;-68
2021/07/16 11:00:48;;;;;;;34.45;8.93;;;;;;;;;;5048807;28;20049;-68
2021/07/16 11:03:15;;;;;;;33.78;7.47;;;;;;;;;;5049692;28;20067;-68
2021/07/16 11:05:42;;;;;;;35.00;7.57;;;;;;;;;;5049559;28;20049;-68
2021/07/16 11:08:25;;;;;;;30.00;7.97;;;;;;;;;;5049228;28;20045;-69
2021/07/16 11:10:54;;;;;;;31.15;7.45;;;;;;;;;;5049796;28;20345;-69
2021/07/16 11:13:31;;;;;;;29.48;8.05;;;;;;;;;;5049706;28;20469;-69
2021/07/16 11:15:58;;;;;;;31.15;8.68;;;;;;;;;;5042794;28;20045;-69
2021/07/16 11:18:26;;;;;;;32.80;7.93;;;;;;;;;;5029704;28;20057;-69
2021/07/16 11:20:53;;;;;;;31.00;8.05;;;;;;;;;;5036003;28;20095;-68
2021/07/16 11:23:20;;;;;;;27.63;7.88;;;;;;;;;;5029158;28;20128;-69
2021/07/16 11:25:46;;;;;;;31.42;7.47;;;;;;;;;;5043436;28;20051;-69
2021/07/16 11:28:12;;;;;;;30.67;7.03;;;;;;;;;;5034079;28;20068;-69
2021/07/16 11:30:42;;;;;;;25.75;7.38;;;;;;;;;;5037514;28;20042;-69
2021/07/16 11:33:08;;;;;;;29.55;7.82;;;;;;;;;;5034301;28;20068;-69
2021/07/16 11:35:36;;;;;;;28.42;7.53;;;;;;;;;;5032760;28;20041;-69
2021/07/16 11:38:07;;;;;;;34.08;7.95;;;;;;;;;;5033204;28;20056;-69
2021/07/16 11:40:34;;;;;;;33.95;8.35;;;;;;;;;;5033803;28;20050;-69
2021/07/16 11:43:02;;;;;;;30.75;7.15;;;;;;;;;;5046304;28;20096;-69
2021/07/16 11:45:30;;;;;;;26.52;7.45;;;;;;;;;;5047621;28;20531;-69
2021/07/16 11:47:57;;;;;;;36.63;8.95;;;;;;;;;;5039677;28;20052;-69
2021/07/16 11:50:24;;;;;;;34.85;8.77;;;;;;;;;;5049147;28;20048;-68
2021/07/16 11:52:51;;;;;;;30.30;7.55;;;;;;;;;;5046731;28;20128;-68
2021/07/16 11:55:20;;;;;;;36.53;7.55;;;;;;;;;;5043807;28;20556;-69
2021/07/16 11:57:48;;;;;;;34.05;9.18;;;;;;;;;;5043965;28;20081;-69
2021/07/16 12:00:14;;;;;;;33.60;8.77;;;;;;;;;;5048970;28;20446;-69
2021/07/16 12:02:40;;;;;;;29.35;8.27;;;;;;;;;;5042748;28;20114;-80
2021/07/16 12:05:07;;;;;;;32.50;8.05;;;;;;;;;;5033575;28;20147;-69
2021/07/16 12:07:35;;;;;;;35.20;9.43;;;;;;;;;;5043084;28;20091;-67
2021/07/16 12:10:07;;;;;;;31.95;7.40;;;;;;;;;;5043338;28;20121;-67
2021/07/16 12:12:33;;;;;;;35.65;8.52;;;;;;;;;;5045937;28;20114;-69
2021/07/16 12:15:04;;;;;;;38.25;9.32;;;;;;;;;;5048646;28;20485;-69
2021/07/16 12:17:32;;;;;;;35.30;8.23;;;;;;;;;;5041350;28;20041;-68
2021/07/16 12:19:58;;;;;;;39.88;8.95;;;;;;;;;;5047045;28;20073;-68
2021/07/16 12:22:26;;;;;;;31.25;7.75;;;;;;;;;;5040663;28;20148;-69
2021/07/16 12:24:53;;;;;;;30.27;8.52;;;;;;;;;;5050828;28;20036;-68
2021/07/16 12:27:20;;;;;;;32.75;7.85;;;;;;;;;;5039886;28;20560;-69
2021/07/16 12:29:55;;;;;;;34.22;8.68;;;;;;;;;;5049362;28;20111;-68
2021/07/16 12:32:31;;;;;;;30.65;7.78;;;;;;;;;;5048449;28;20055;-69
2021/07/16 12:34:57;;;;;;;33.22;8.05;;;;;;;;;;5046248;28;20045;-68
2021/07/16 12:37:24;;;;;;;26.98;7.95;;;;;;;;;;5042886;28;20044;-68
2021/07/16 12:40:01;;;;;;;32.03;8.93;;;;;;;;;;5049553;28;20143;-68
2021/07/16 12:42:27;;;;;;;29.38;8.27;;;;;;;;;;5045180;28;20049;-68
2021/07/16 12:45:02;;;;;;;32.53;8.18;;;;;;;;;;5043807;28;20041;-69
2021/07/16 12:47:29;;;;;;;35.67;8.57;;;;;;;;;;5047883;28;20045;-68
2021/07/16 12:50:05;;;;;;;29.85;7.97;;;;;;;;;;5048563;28;20044;-69
2021/07/16 12:52:31;;;;;;;28.70;8.93;;;;;;;;;;5045357;28;20128;-68
2021/07/16 12:55:13;;;;;;;30.90;8.25;;;;;;;;;;5042652;28;20049;-68
2021/07/16 12:57:39;;;;;;;28.83;7.90;;;;;;;;;;5045573;28;20449;-69
2021/07/16 13:00:14;;;;;;;30.48;8.18;;;;;;;;;;5047528;28;20033;-68
2021/07/16 13:02:40;;;;;;;31.55;8.50;;;;;;;;;;5041217;28;20507;-69
2021/07/16 13:05:06;;;;;;;28.15;8.20;;;;;;;;;;5037997;28;20074;-69
2021/07/16 13:07:33;;;;;;;26.08;7.80;;;;;;;;;;5046108;28;20041;-69
2021/07/16 13:09:59;;;;;;;29.48;8.25;;;;;;;;;;5034626;28;20065;-69
2021/07/16 13:12:32;;;;;;;31.23;7.95;;;;;;;;;;5041343;28;20489;-69
2021/07/16 13:15:04;;;;;;;28.90;7.78;;;;;;;;;;5043347;28;20093;-69
2021/07/16 13:17:32;;;;;;;34.78;9.13;;;;;;;;;;5049234;28;20120;-69
2021/07/16 13:20:06;;;;;;;27.38;7.70;;;;;;;;;;5040639;28;20055;-69
2021/07/16 13:22:39;;;;;;;31.75;8.18;;;;;;;;;;5039106;28;20059;-68
2021/07/16 13:25:05;;;;;;;;;;;;;;;;;;5043427;28;20531;-69
2021/07/16 13:27:31;;;;;;;28.13;8.23;;;;;;;;;;5040743;28;19928;-69
2021/07/16 13:29:58;;;;;;;31.80;8.13;;;;;;;;;;5048855;28;20495;-69
2021/07/16 13:32:24;;;;;;;37.30;8.57;;;;;;;;;;5039536;28;20116;-69
2021/07/16 13:34:50;;;;;;;27.30;7.55;;;;;;;;;;5049081;28;20047;-68
2021/07/16 13:37:17;;;;;;;24.65;7.22;;;;;;;;;;5041922;28;20041;-69
2021/07/16 13:39:44;;;;;;;36.92;8.65;;;;;;;;;;5039721;28;20071;-69
2021/07/16 13:42:11;;;;;;;35.28;8.70;;;;;;;;;;5042381;28;20056;-69
2021/07/16 13:44:37;;;;;;;28.58;8.80;;;;;;;;;;5047340;28;20117;-69
2021/07/16 13:47:03;;;;;;;33.60;8.32;;;;;;;;;;5048039;28;20093;-69
2021/07/16 13:49:30;;;;;;;31.00;7.57;;;;;;;;;;5043736;28;20033;-69
2021/07/16 13:51:57;;;;;;;31.90;8.88;;;;;;;;;;5040530;28;20106;-69
2021/07/16 13:54:23;;;;;;;39.67;9.13;;;;;;;;;;5036411;28;20068;-68
2021/07/16 13:56:51;;;;;;;42.65;9.27;;;;;;;;;;5033917;28;20049;-68
2021/07/16 13:59:17;;;;;;;31.23;8.30;;;;;;;;;;5031493;28;20076;-68
2021/07/16 14:01:44;;;;;;;25.38;6.93;;;;;;;;;;5045915;28;20120;-69
2021/07/16 14:04:10;;;;;;;31.40;7.93;;;;;;;;;;5039267;28;20146;-68
2021/07/16 14:06:36;;;;;;;36.85;7.85;;;;;;;;;;5033054;28;20048;-68
2021/07/16 14:09:03;;;;;;;30.40;8.63;;;;;;;;;;5030875;28;20137;-69
2021/07/16 14:11:29;;;;;;;33.15;8.10;;;;;;;;;;5030078;28;20046;-68
2021/07/16 14:13:55;;;;;;;32.40;8.23;;;;;;;;;;5034582;28;20053;-69
2021/07/16 14:16:21;;;;;;;27.15;8.05;;;;;;;;;;5040798;28;20046;-68
2021/07/16 14:18:48;;;;;;;29.38;7.88;;;;;;;;;;5034176;28;20426;-69
2021/07/16 14:21:14;;;;;;;33.80;8.27;;;;;;;;;;5045702;28;20056;-69
2021/07/16 14:23:40;;;;;;;29.95;8.55;;;;;;;;;;5038177;28;20056;-69
2021/07/16 14:26:07;;;;;;;40.95;8.88;;;;;;;;;;5041910;28;20049;-68
2021/07/16 14:28:34;;;;;;;29.58;7.85;;;;;;;;;;5038409;28;20060;-69
2021/07/16 14:31:00;;;;;;;31.25;8.55;;;;;;;;;;5042624;28;20052;-69